createdAt,value
2024-01-25T00:00:05.595Z,17.35
2024-01-25T00:01:08.247Z,18.60
2024-01-25T00:02:17.691Z,18.88
2024-01-25T00:04:23.397Z,16.23
2024-01-25T00:05:26.328Z,19.67
2024-01-25T00:07:31.818Z,18.77
2024-01-25T00:08:34.185Z,18.75
2024-01-25T00:09:37.038Z,20.92
2024-01-25T00:10:39.441Z,19.42
2024-01-25T00:11:42.177Z,21.40
2024-01-25T00:12:44.720Z,19.05
2024-01-25T00:13:47.120Z,20.83
2024-01-25T00:14:50.151Z,21.25
2024-01-25T00:15:53.720Z,19.83
2024-01-25T00:16:56.295Z,21.08
2024-01-25T00:17:58.904Z,20.30
2024-01-25T00:19:01.613Z,19.23
2024-01-25T00:20:06.304Z,21.40
2024-01-25T00:21:09.060Z,20.45
2024-01-25T00:22:11.521Z,18.17
2024-01-25T00:23:14.653Z,19.73
2024-01-25T00:24:17.452Z,20.88
2024-01-25T00:25:20.181Z,18.92
2024-01-25T00:26:23.004Z,18.92
2024-01-25T00:27:25.981Z,20.38
2024-01-25T00:28:29.788Z,19.08
2024-01-25T00:29:32.885Z,17.33
2024-01-25T00:30:35.406Z,19.08
2024-01-25T00:31:37.829Z,19.02
2024-01-25T00:33:43.179Z,15.05
2024-01-25T00:34:46.010Z,18.20
2024-01-25T00:35:49.692Z,17.92
2024-01-25T00:36:53.066Z,17.45
2024-01-25T00:37:55.928Z,18.98
2024-01-25T00:38:58.685Z,17.48
2024-01-25T00:40:01.450Z,19.10
2024-01-25T00:41:05.460Z,17.88
2024-01-25T00:42:08.365Z,16.85
2024-01-25T00:43:11.695Z,16.98
2024-01-25T00:44:14.545Z,18.38
2024-01-25T00:45:17.382Z,17.85
2024-01-25T00:46:20.172Z,19.23
2024-01-25T00:48:25.876Z,16.15
2024-01-25T00:49:29.538Z,16.67
2024-01-25T00:51:35.249Z,15.50
2024-01-25T00:53:40.867Z,14.43
2024-01-25T00:54:43.882Z,16.73
2024-01-25T00:55:47.060Z,14.90
2024-01-25T00:56:52.319Z,18.83
2024-01-25T00:57:56.086Z,17.20
2024-01-25T00:58:58.969Z,18.60
2024-01-25T01:00:02.073Z,16.42
2024-01-25T01:01:05.030Z,17.25
2024-01-25T01:02:12.888Z,18.70
2024-01-25T01:03:16.020Z,18.98
2024-01-25T01:05:21.597Z,14.93
2024-01-25T01:06:25.112Z,17.08
2024-01-25T01:07:28.808Z,16.38
2024-01-25T01:08:31.731Z,17.60
2024-01-25T01:10:37.572Z,14.60
2024-01-25T01:11:40.289Z,16.38
2024-01-25T01:12:43.036Z,15.98
2024-01-25T01:13:50.655Z,17.95
2024-01-25T01:14:53.498Z,15.88
2024-01-25T01:15:56.516Z,16.25
2024-01-25T01:16:59.202Z,15.13
2024-01-25T01:18:01.828Z,18.92
2024-01-25T01:19:11.546Z,15.95
2024-01-25T01:20:13.986Z,14.75
2024-01-25T01:21:18.769Z,17.33
2024-01-25T01:22:21.513Z,16.33
2024-01-25T01:23:24.394Z,14.85
2024-01-25T01:24:26.823Z,15.85
2024-01-25T01:25:29.335Z,17.52
2024-01-25T01:26:31.809Z,16.10
2024-01-25T01:27:34.724Z,16.00
2024-01-25T01:28:37.171Z,15.85
2024-01-25T01:29:39.946Z,14.85
2024-01-25T01:30:43.384Z,16.85
2024-01-25T01:31:47.554Z,16.98
2024-01-25T01:32:50.273Z,16.70
2024-01-25T01:33:54.335Z,15.90
2024-01-25T01:35:59.813Z,14.73
2024-01-25T01:37:02.423Z,15.95
2024-01-25T01:38:05.110Z,14.82
2024-01-25T01:39:07.693Z,15.77
2024-01-25T01:40:11.655Z,14.32
2024-01-25T01:41:14.399Z,16.05
2024-01-25T01:42:17.026Z,14.60
2024-01-25T01:43:21.546Z,16.73
2024-01-25T01:44:24.692Z,15.35
2024-01-25T01:45:27.350Z,15.98
2024-01-25T01:46:39.143Z,15.63
2024-01-25T01:47:42.922Z,14.68
2024-01-25T01:48:46.242Z,14.32
2024-01-25T01:49:49.196Z,15.15
2024-01-25T01:50:52.379Z,13.55
2024-01-25T01:52:57.836Z,13.55
2024-01-25T01:54:02.561Z,15.23
2024-01-25T01:55:05.785Z,14.93
2024-01-25T01:56:09.290Z,15.63
2024-01-25T01:57:12.375Z,15.02
2024-01-25T01:58:15.265Z,15.77
2024-01-25T01:59:18.501Z,16.60
2024-01-25T02:00:22.448Z,15.55
2024-01-25T02:01:26.300Z,16.20
2024-01-25T02:02:28.908Z,13.77
2024-01-25T02:03:31.596Z,15.10
2024-01-25T02:04:34.236Z,13.70
2024-01-25T02:05:37.347Z,14.52
2024-01-25T02:06:40.634Z,15.05
2024-01-25T02:07:43.817Z,14.80
2024-01-25T02:08:52.280Z,14.77
2024-01-25T02:09:55.810Z,15.15
2024-01-25T02:10:58.511Z,14.77
2024-01-25T02:12:02.933Z,14.88
2024-01-25T02:13:05.761Z,15.10
2024-01-25T02:14:12.273Z,15.73
2024-01-25T02:15:15.011Z,14.20
2024-01-25T02:16:17.720Z,15.50
2024-01-25T02:17:20.311Z,14.80
2024-01-25T02:18:23.628Z,14.38
2024-01-25T02:20:28.653Z,12.82
2024-01-25T02:21:31.492Z,13.18
2024-01-25T02:22:34.733Z,14.82
2024-01-25T02:23:37.289Z,14.77
2024-01-25T02:24:39.754Z,15.63
2024-01-25T02:25:42.412Z,13.05
2024-01-25T02:26:45.446Z,14.85
2024-01-25T02:27:47.747Z,13.45
2024-01-25T02:28:50.357Z,12.93
2024-01-25T02:29:53.021Z,12.40
2024-01-25T02:30:56.355Z,13.55
2024-01-25T02:31:58.993Z,14.82
2024-01-25T02:33:01.475Z,14.30
2024-01-25T02:34:04.076Z,14.10
2024-01-25T02:35:07.436Z,13.48
2024-01-25T02:37:13.709Z,10.68
2024-01-25T02:38:16.613Z,12.25
2024-01-25T02:39:19.657Z,12.82
2024-01-25T02:40:22.434Z,11.55
2024-01-25T02:41:25.020Z,13.52
2024-01-25T02:42:27.909Z,13.23
2024-01-25T02:43:30.617Z,14.45
2024-01-25T02:44:32.986Z,13.52
2024-01-25T02:45:35.493Z,13.65
2024-01-25T02:46:39.418Z,14.57
2024-01-25T02:47:42.642Z,13.43
2024-01-25T02:48:45.385Z,14.32
2024-01-25T02:49:48.078Z,12.93
2024-01-25T02:50:50.605Z,12.90
2024-01-25T02:52:56.279Z,11.52
2024-01-25T02:53:58.599Z,12.55
2024-01-25T02:55:01.195Z,11.95
2024-01-25T02:57:06.829Z,12.52
2024-01-25T02:59:11.388Z,11.15
2024-01-25T03:00:14.870Z,13.60
2024-01-25T03:01:17.331Z,12.65
2024-01-25T03:02:20.782Z,13.45
2024-01-25T03:03:25.211Z,15.10
2024-01-25T03:04:28.423Z,13.75
2024-01-25T03:05:31.144Z,15.02
2024-01-25T03:06:34.015Z,14.60
2024-01-25T03:07:36.543Z,14.05
2024-01-25T03:08:39.776Z,15.05
2024-01-25T03:09:42.433Z,13.98
2024-01-25T03:10:44.889Z,14.02
2024-01-25T03:11:47.219Z,14.32
2024-01-25T03:12:50.115Z,14.68
2024-01-25T03:13:53.288Z,14.80
2024-01-25T03:14:55.989Z,14.98
2024-01-25T03:15:58.507Z,13.35
2024-01-25T03:17:01.539Z,14.98
2024-01-25T03:18:04.804Z,16.83
2024-01-25T03:19:07.255Z,16.58
2024-01-25T03:20:10.274Z,13.55
2024-01-25T03:21:13.196Z,15.10
2024-01-25T03:22:15.742Z,14.95
2024-01-25T03:23:18.937Z,14.50
2024-01-25T03:24:25.731Z,13.88
2024-01-25T03:25:28.721Z,15.02
2024-01-25T03:26:31.429Z,15.20
2024-01-25T03:27:33.872Z,14.98
2024-01-25T03:28:37.439Z,14.90
2024-01-25T03:29:43.554Z,16.65
2024-01-25T03:30:46.040Z,14.98
2024-01-25T03:31:48.652Z,16.80
2024-01-25T03:32:51.411Z,16.55
2024-01-25T03:33:55.400Z,15.70
2024-01-25T03:34:57.964Z,14.23
2024-01-25T03:36:04.771Z,16.45
2024-01-25T03:37:08.725Z,16.05
2024-01-25T03:38:12.049Z,16.67
2024-01-25T03:39:14.629Z,17.25
2024-01-25T03:40:17.019Z,17.50
2024-01-25T03:41:19.469Z,16.48
2024-01-25T03:42:22.457Z,17.95
2024-01-25T03:43:27.549Z,17.38
2024-01-25T03:44:35.868Z,16.98
2024-01-25T03:45:38.281Z,18.38
2024-01-25T03:46:41.105Z,17.77
2024-01-25T03:47:43.447Z,16.58
2024-01-25T03:48:46.049Z,16.38
2024-01-25T03:49:49.322Z,19.90
2024-01-25T03:50:52.353Z,20.27
2024-01-25T03:51:54.855Z,17.92
2024-01-25T03:52:57.329Z,19.02
2024-01-25T03:53:59.761Z,20.08
2024-01-25T03:56:05.693Z,15.57
2024-01-25T03:57:08.467Z,18.73
2024-01-25T03:58:11.046Z,19.02
2024-01-25T03:59:15.248Z,14.88
2024-01-25T04:00:17.930Z,17.65
2024-01-25T04:01:20.564Z,19.70
2024-01-25T04:02:23.218Z,18.35
2024-01-25T04:04:28.420Z,19.13
2024-01-25T04:05:31.159Z,18.23
2024-01-25T04:06:33.605Z,17.13
2024-01-25T04:08:39.411Z,15.02
2024-01-25T04:09:41.862Z,18.40
2024-01-25T04:10:44.414Z,18.30
2024-01-25T04:11:47.398Z,17.90
2024-01-25T04:12:49.817Z,19.27
2024-01-25T04:13:52.073Z,18.77
2024-01-25T04:14:54.730Z,18.42
2024-01-25T04:15:57.708Z,18.70
2024-01-25T04:17:00.768Z,21.08
2024-01-25T04:19:05.562Z,16.50
2024-01-25T04:21:11.311Z,15.85
2024-01-25T04:22:13.951Z,20.75
2024-01-25T04:23:16.412Z,36.17
2024-01-25T04:24:19.346Z,33.22
2024-01-25T04:25:22.494Z,27.35
2024-01-25T04:26:25.206Z,25.48
2024-01-25T04:27:27.951Z,22.65
2024-01-25T04:29:33.100Z,17.52
2024-01-25T04:30:35.406Z,18.25
2024-01-25T04:31:45.575Z,19.67
2024-01-25T04:32:49.275Z,21.55
2024-01-25T04:33:52.447Z,18.95
2024-01-25T04:34:55.495Z,33.47
2024-01-25T04:35:57.928Z,21.83
2024-01-25T04:37:00.703Z,21.48
2024-01-25T04:38:03.234Z,19.90
2024-01-25T04:39:05.913Z,18.67
2024-01-25T04:40:09.431Z,21.67
2024-01-25T04:41:12.425Z,53.55
2024-01-25T04:42:14.921Z,23.17
2024-01-25T04:43:17.468Z,22.50
2024-01-25T04:44:20.177Z,19.15
2024-01-25T04:46:25.643Z,15.68
2024-01-25T04:47:28.062Z,16.88
2024-01-25T04:48:31.615Z,16.40
2024-01-25T04:49:34.892Z,17.17
2024-01-25T04:50:37.498Z,15.48
2024-01-25T04:51:39.756Z,17.10
2024-01-25T04:52:41.914Z,18.98
2024-01-25T04:53:44.865Z,17.95
2024-01-25T04:54:46.937Z,16.65
2024-01-25T04:55:49.143Z,16.30
2024-01-25T04:56:51.232Z,15.52
2024-01-25T04:57:54.946Z,17.83
2024-01-25T04:58:57.133Z,15.70
2024-01-25T04:59:59.154Z,14.75
2024-01-25T05:01:01.612Z,16.02
2024-01-25T05:03:07.280Z,21.02
2024-01-25T05:04:09.807Z,19.50
2024-01-25T05:05:12.442Z,18.90
2024-01-25T05:06:15.360Z,19.63
2024-01-25T05:07:18.050Z,16.17
2024-01-25T05:08:20.555Z,17.25
2024-01-25T05:09:23.356Z,16.95
2024-01-25T05:10:27.182Z,17.08
2024-01-25T05:11:29.896Z,15.70
2024-01-25T05:12:32.688Z,17.75
2024-01-25T05:13:35.443Z,17.88
2024-01-25T05:14:38.274Z,17.00
2024-01-25T05:15:41.004Z,15.70
2024-01-25T05:16:43.536Z,16.90
2024-01-25T05:17:46.190Z,15.10
2024-01-25T05:19:51.742Z,14.70
2024-01-25T05:20:56.447Z,15.50
2024-01-25T05:21:59.278Z,23.67
2024-01-25T05:23:03.039Z,33.50
2024-01-25T05:24:05.720Z,37.78
2024-01-25T05:25:09.782Z,33.10
2024-01-25T05:26:12.612Z,25.33
2024-01-25T05:27:15.391Z,22.55
2024-01-25T05:28:17.884Z,19.13
2024-01-25T05:29:20.290Z,18.40
2024-01-25T05:30:23.378Z,17.75
2024-01-25T05:31:26.189Z,18.05
2024-01-25T05:32:28.809Z,17.02
2024-01-25T05:33:31.560Z,17.38
2024-01-25T05:34:35.165Z,16.52
2024-01-25T05:35:38.391Z,15.48
2024-01-25T05:36:40.781Z,15.73
2024-01-25T05:37:43.566Z,15.25
2024-01-25T05:39:48.913Z,13.05
2024-01-25T05:40:51.295Z,15.75
2024-01-25T05:41:53.626Z,15.02
2024-01-25T05:42:56.661Z,17.58
2024-01-25T05:43:59.699Z,16.80
2024-01-25T05:45:02.793Z,17.27
2024-01-25T05:46:05.570Z,18.17
2024-01-25T05:47:08.548Z,19.98
2024-01-25T05:48:11.546Z,17.40
2024-01-25T05:49:14.226Z,17.98
2024-01-25T05:50:16.972Z,30.45
2024-01-25T05:52:23.549Z,45.50
2024-01-25T05:53:27.077Z,34.92
2024-01-25T05:54:29.464Z,43.20
2024-01-25T05:55:32.287Z,32.42
2024-01-25T05:56:35.595Z,23.98
2024-01-25T05:58:40.608Z,14.55
2024-01-25T05:59:42.948Z,15.60
2024-01-25T06:00:45.994Z,14.73
2024-01-25T06:01:48.544Z,16.63
2024-01-25T06:02:51.037Z,16.02
2024-01-25T06:04:59.808Z,14.15
2024-01-25T06:06:02.580Z,15.02
2024-01-25T06:07:05.587Z,16.25
2024-01-25T06:08:08.382Z,17.88
2024-01-25T06:09:13.750Z,16.55
2024-01-25T06:10:17.094Z,16.40
2024-01-25T06:11:19.640Z,15.38
2024-01-25T06:12:22.440Z,17.90
2024-01-25T06:13:25.649Z,16.55
2024-01-25T06:14:28.240Z,16.73
2024-01-25T06:15:30.707Z,16.70
2024-01-25T06:16:33.341Z,18.42
2024-01-25T06:17:37.600Z,16.63
2024-01-25T06:18:40.254Z,20.42
2024-01-25T06:19:43.203Z,18.20
2024-01-25T06:21:48.528Z,15.85
2024-01-25T06:22:51.006Z,17.75
2024-01-25T06:23:53.735Z,19.10
2024-01-25T06:24:56.671Z,17.73
2024-01-25T06:25:59.497Z,18.20
2024-01-25T06:27:01.983Z,17.73
2024-01-25T06:28:05.300Z,18.98
2024-01-25T06:29:07.999Z,17.63
2024-01-25T06:30:11.256Z,19.27
2024-01-25T06:32:26.041Z,16.52
2024-01-25T06:33:29.662Z,15.70
2024-01-25T06:34:32.810Z,17.92
2024-01-25T06:35:35.835Z,16.30
2024-01-25T06:37:40.676Z,14.75
2024-01-25T06:38:43.648Z,16.13
2024-01-25T06:39:46.300Z,17.23
2024-01-25T06:40:48.891Z,16.60
2024-01-25T06:41:51.307Z,17.08
2024-01-25T06:43:56.627Z,15.95
2024-01-25T06:44:59.088Z,16.60
2024-01-25T06:46:01.593Z,17.58
2024-01-25T06:48:08.231Z,15.15
2024-01-25T06:49:10.784Z,15.93
2024-01-25T06:50:13.385Z,16.60
2024-01-25T06:51:16.856Z,16.65
2024-01-25T06:52:20.677Z,16.05
2024-01-25T06:53:24.564Z,16.65
2024-01-25T06:54:27.146Z,16.23
2024-01-25T06:55:29.938Z,17.17
2024-01-25T06:56:32.772Z,17.88
2024-01-25T06:57:35.198Z,19.08
2024-01-25T06:58:37.809Z,21.65
2024-01-25T06:59:41.641Z,17.38
2024-01-25T07:00:44.525Z,17.33
2024-01-25T07:01:47.568Z,17.67
2024-01-25T07:03:53.729Z,16.17
2024-01-25T07:04:57.157Z,16.75
2024-01-25T07:05:59.950Z,17.98
2024-01-25T07:07:02.639Z,18.17
2024-01-25T07:08:06.334Z,18.75
2024-01-25T07:09:09.039Z,19.88
2024-01-25T07:10:11.450Z,17.55
2024-01-25T07:11:14.028Z,17.98
2024-01-25T07:12:17.244Z,15.85
2024-01-25T07:13:20.161Z,17.30
2024-01-25T07:14:25.883Z,16.15
2024-01-25T07:15:28.710Z,17.38
2024-01-25T07:17:34.779Z,13.88
2024-01-25T07:18:37.324Z,14.45
2024-01-25T07:19:40.043Z,16.73
2024-01-25T07:20:43.105Z,17.33
2024-01-25T07:21:47.325Z,17.67
2024-01-25T07:22:49.816Z,16.55
2024-01-25T07:23:55.936Z,16.73
2024-01-25T07:25:06.930Z,17.75
2024-01-25T07:28:38.488Z,14.40
2024-01-25T07:29:41.660Z,14.55
2024-01-25T07:30:44.578Z,17.10
2024-01-25T07:31:47.480Z,17.60
2024-01-25T07:32:51.430Z,16.80
2024-01-25T07:33:55.479Z,16.38
2024-01-25T07:35:38.588Z,17.20
2024-01-25T07:36:43.253Z,18.00
2024-01-25T07:37:46.419Z,16.38
2024-01-25T07:38:49.760Z,17.42
2024-01-25T07:39:52.113Z,17.85
2024-01-25T07:40:54.601Z,16.55
2024-01-25T07:41:57.501Z,16.15
2024-01-25T07:42:59.943Z,16.42
2024-01-25T07:44:03.926Z,16.60
2024-01-25T07:45:06.871Z,18.35
2024-01-25T07:46:10.079Z,16.23
2024-01-25T07:47:12.626Z,18.55
2024-01-25T07:48:16.034Z,18.50
2024-01-25T07:49:19.040Z,17.75
2024-01-25T07:50:22.573Z,20.00
2024-01-25T07:51:29.798Z,19.55
2024-01-25T07:52:33.036Z,15.90
2024-01-25T07:53:36.239Z,18.88
2024-01-25T07:54:39.439Z,18.90
2024-01-25T07:55:41.944Z,16.85
2024-01-25T07:56:44.694Z,17.60
2024-01-25T07:58:50.854Z,16.33
2024-01-25T07:59:53.494Z,17.60
2024-01-25T08:00:56.136Z,19.98
2024-01-25T08:03:02.083Z,14.50
2024-01-25T08:04:05.097Z,16.27
2024-01-25T08:06:10.206Z,16.60
2024-01-25T08:07:15.408Z,10.77
2024-01-25T08:08:19.073Z,18.63
2024-01-25T08:09:36.775Z,19.10
2024-01-25T08:10:57.549Z,17.52
2024-01-25T08:12:16.850Z,18.48
2024-01-25T08:13:40.045Z,18.35
2024-01-25T08:14:46.976Z,17.67
2024-01-25T08:15:59.055Z,18.33
2024-01-25T08:17:25.537Z,17.48
2024-01-25T08:18:56.466Z,17.65
2024-01-25T08:20:06.798Z,16.83
2024-01-25T08:21:24.303Z,17.55
2024-01-25T08:22:29.266Z,17.05
2024-01-25T08:25:46.398Z,15.20
2024-01-25T08:27:00.551Z,17.30
2024-01-25T08:28:17.146Z,15.80
2024-01-25T08:29:26.706Z,16.02
2024-01-25T08:30:43.833Z,16.48
2024-01-25T08:31:48.223Z,17.83
2024-01-25T08:32:56.544Z,18.13
2024-01-25T08:34:02.722Z,18.73
2024-01-25T08:35:35.808Z,18.90
2024-01-25T08:36:38.757Z,16.48
2024-01-25T08:37:44.467Z,16.15
2024-01-25T08:38:47.241Z,17.95
2024-01-25T08:39:51.728Z,16.77
2024-01-25T08:40:54.612Z,17.80
2024-01-25T08:43:06.368Z,15.43
2024-01-25T08:44:08.971Z,15.90
2024-01-25T08:45:14.138Z,17.63
2024-01-25T08:46:18.618Z,16.55
2024-01-25T08:48:24.167Z,15.90
2024-01-25T08:49:26.720Z,16.30
2024-01-25T08:50:29.856Z,16.60
2024-01-25T08:51:32.540Z,18.52
2024-01-25T08:52:35.291Z,17.92
2024-01-25T08:53:38.206Z,18.63
2024-01-25T08:54:41.902Z,16.75
2024-01-25T08:55:44.350Z,17.25
2024-01-25T08:56:46.835Z,17.17
2024-01-25T08:58:54.055Z,15.60
2024-01-25T08:59:56.703Z,16.45
2024-01-25T09:00:59.396Z,17.10
2024-01-25T09:02:02.159Z,16.85
2024-01-25T09:03:05.268Z,17.98
2024-01-25T09:04:07.996Z,16.95
2024-01-25T09:05:13.529Z,18.10
2024-01-25T09:06:16.906Z,17.98
2024-01-25T09:07:19.882Z,19.15
2024-01-25T09:08:22.887Z,17.60
2024-01-25T09:10:27.856Z,17.73
2024-01-25T09:12:32.797Z,19.70
2024-01-25T09:13:45.366Z,17.58
2024-01-25T09:14:48.786Z,18.48
2024-01-25T09:16:54.356Z,19.85
2024-01-25T09:17:56.708Z,20.23
2024-01-25T09:18:59.276Z,22.52
2024-01-25T09:20:04.908Z,22.05
2024-01-25T09:21:07.778Z,21.00
2024-01-25T09:22:11.422Z,21.85
2024-01-25T09:23:13.845Z,21.92
2024-01-25T09:24:16.684Z,23.70
2024-01-25T09:25:19.694Z,21.98
2024-01-25T09:26:22.341Z,21.70
2024-01-25T09:27:24.771Z,21.05
2024-01-25T09:29:33.147Z,22.23
2024-01-25T09:30:35.937Z,21.90
2024-01-25T09:31:38.481Z,22.83
2024-01-25T09:32:41.764Z,22.73
2024-01-25T09:33:44.391Z,24.00
2024-01-25T09:34:47.367Z,20.83
2024-01-25T09:35:50.275Z,21.40
2024-01-25T09:36:54.346Z,20.60
2024-01-25T09:37:57.212Z,20.70
2024-01-25T09:39:00.108Z,21.05
2024-01-25T09:41:05.889Z,18.83
2024-01-25T09:42:11.819Z,21.02
2024-01-25T09:43:23.998Z,19.60
2024-01-25T09:44:26.699Z,18.52
2024-01-25T09:45:32.377Z,19.75
2024-01-25T09:46:35.432Z,19.70
2024-01-25T09:47:37.941Z,18.98
2024-01-25T09:48:41.991Z,20.02
2024-01-25T09:49:46.948Z,17.52
2024-01-25T09:50:50.324Z,18.50
2024-01-25T09:51:53.562Z,19.33
2024-01-25T09:52:57.970Z,20.08
2024-01-25T09:54:02.151Z,20.73
2024-01-25T09:55:08.381Z,20.25
2024-01-25T09:56:14.592Z,18.10
2024-01-25T09:57:28.243Z,19.08
2024-01-25T09:58:39.297Z,19.27
2024-01-25T09:59:43.323Z,18.20
2024-01-25T10:00:46.023Z,19.70
2024-01-25T10:01:50.204Z,17.85
2024-01-25T10:02:53.044Z,17.73
2024-01-25T10:03:59.120Z,19.00
2024-01-25T10:05:01.973Z,20.23
2024-01-25T10:06:07.261Z,20.45
2024-01-25T10:07:25.657Z,20.25
2024-01-25T10:08:28.384Z,19.63
2024-01-25T10:09:41.268Z,20.17
2024-01-25T10:10:46.080Z,19.50
2024-01-25T10:12:57.310Z,18.20
2024-01-25T10:14:02.369Z,17.17
2024-01-25T10:15:06.888Z,16.90
2024-01-25T10:16:17.262Z,17.35
2024-01-25T10:17:52.188Z,14.50
2024-01-25T10:18:55.370Z,14.68
2024-01-25T10:20:08.766Z,15.65
2024-01-25T10:21:12.478Z,17.05
2024-01-25T10:22:16.464Z,16.45
2024-01-25T10:23:20.255Z,13.65
2024-01-25T10:24:26.206Z,14.68
2024-01-25T10:25:29.391Z,15.55
2024-01-25T10:26:33.434Z,14.50
2024-01-25T10:27:36.757Z,13.75
2024-01-25T10:28:40.081Z,14.90
2024-01-25T10:29:42.820Z,14.23
2024-01-25T10:30:45.544Z,14.10
2024-01-25T10:31:48.859Z,15.10
2024-01-25T10:32:52.592Z,16.17
2024-01-25T10:33:56.218Z,15.60
2024-01-25T10:35:00.484Z,15.90
2024-01-25T10:36:04.433Z,15.15
2024-01-25T10:37:09.292Z,15.52
2024-01-25T10:38:13.459Z,14.82
2024-01-25T10:39:17.391Z,15.10
2024-01-25T10:40:21.764Z,15.98
2024-01-25T10:41:28.422Z,14.68
2024-01-25T10:42:32.507Z,16.08
2024-01-25T10:43:35.812Z,12.25
2024-01-25T10:44:39.425Z,12.38
2024-01-25T10:45:41.991Z,11.98
2024-01-25T10:46:48.226Z,12.05
2024-01-25T10:47:51.324Z,13.07
2024-01-25T10:48:58.872Z,12.63
2024-01-25T10:50:04.122Z,9.32
2024-01-25T10:51:07.171Z,10.88
2024-01-25T10:52:11.213Z,12.40
2024-01-25T10:53:14.222Z,11.57
2024-01-25T10:54:17.532Z,11.57
2024-01-25T10:55:21.184Z,13.70
2024-01-25T10:56:23.796Z,11.57
2024-01-25T10:57:26.522Z,11.60
2024-01-25T10:58:37.557Z,10.77
2024-01-25T10:59:41.002Z,12.23
2024-01-25T11:00:50.624Z,13.82
2024-01-25T11:01:56.266Z,12.10
2024-01-25T11:02:58.965Z,13.10
2024-01-25T11:04:01.504Z,11.60
2024-01-25T11:05:10.056Z,14.02
2024-01-25T11:06:13.892Z,10.27
2024-01-25T11:07:16.886Z,9.93
2024-01-25T11:08:20.928Z,10.57
2024-01-25T11:09:23.442Z,9.63
2024-01-25T11:10:28.630Z,10.73
2024-01-25T11:11:33.047Z,9.90
2024-01-25T11:12:37.196Z,9.15
2024-01-25T11:13:41.923Z,8.93
2024-01-25T11:14:44.983Z,10.35
2024-01-25T11:16:50.598Z,7.32
2024-01-25T11:17:56.233Z,8.30
2024-01-25T11:19:07.171Z,8.30
2024-01-25T11:20:15.715Z,8.48
2024-01-25T11:21:41.266Z,9.23
2024-01-25T11:22:47.631Z,9.15
2024-01-25T11:23:51.668Z,10.02
2024-01-25T11:24:55.310Z,10.07
2024-01-25T11:25:58.024Z,10.02
2024-01-25T11:27:02.316Z,9.80
2024-01-25T11:28:06.908Z,12.00
2024-01-25T11:29:09.960Z,10.18
2024-01-25T11:30:14.804Z,9.38
2024-01-25T11:31:17.123Z,10.10
2024-01-25T11:32:19.949Z,9.15
2024-01-25T11:33:23.360Z,9.13
2024-01-25T11:34:26.464Z,8.82
2024-01-25T11:35:32.961Z,7.38
2024-01-25T11:36:37.390Z,9.82
2024-01-25T11:37:40.523Z,10.00
2024-01-25T11:38:42.869Z,9.55
2024-01-25T11:39:45.380Z,9.27
2024-01-25T11:40:47.694Z,10.38
2024-01-25T11:41:52.956Z,9.10
2024-01-25T11:42:55.568Z,7.90
2024-01-25T11:43:58.422Z,10.23
2024-01-25T11:45:00.783Z,9.98
2024-01-25T11:47:06.460Z,8.35
2024-01-25T11:48:09.096Z,7.30
2024-01-25T11:49:12.113Z,6.63
2024-01-25T11:50:15.512Z,8.80
2024-01-25T11:51:22.211Z,8.30
2024-01-25T11:52:24.830Z,9.90
2024-01-25T11:53:27.292Z,9.90
2024-01-25T11:54:30.024Z,9.43
2024-01-25T11:55:32.803Z,9.43
2024-01-25T11:56:39.821Z,9.25
2024-01-25T11:57:43.123Z,9.20
2024-01-25T11:58:47.418Z,10.13
2024-01-25T11:59:50.938Z,11.13
2024-01-25T12:00:55.262Z,9.50
2024-01-25T12:01:58.221Z,10.90
2024-01-25T12:03:01.158Z,10.57
2024-01-25T12:04:04.275Z,11.35
2024-01-25T12:05:07.569Z,11.10
2024-01-25T12:06:11.302Z,12.40
2024-01-25T12:07:16.486Z,10.55
2024-01-25T12:08:19.215Z,12.88
2024-01-25T12:09:24.507Z,13.43
2024-01-25T12:10:27.626Z,12.70
2024-01-25T12:11:30.015Z,14.63
2024-01-25T12:12:32.683Z,12.13
2024-01-25T12:13:40.912Z,13.90
2024-01-25T12:14:43.680Z,11.38
2024-01-25T12:15:47.561Z,12.18
2024-01-25T12:16:50.109Z,11.68
2024-01-25T12:17:52.783Z,11.82
2024-01-25T12:18:55.972Z,11.02
2024-01-25T12:21:02.538Z,10.68
2024-01-25T12:22:05.062Z,11.35
2024-01-25T12:23:09.938Z,8.85
2024-01-25T12:24:12.498Z,11.15
2024-01-25T12:25:15.200Z,11.57
2024-01-25T12:27:24.587Z,9.95
2024-01-25T12:28:31.337Z,10.48
2024-01-25T12:29:34.817Z,11.18
2024-01-25T12:30:37.256Z,11.52
2024-01-25T12:31:40.112Z,7.63
2024-01-25T12:32:42.714Z,9.68
2024-01-25T12:33:45.480Z,12.27
2024-01-25T12:36:10.156Z,9.48
2024-01-25T12:38:14.913Z,7.70
2024-01-25T12:39:19.356Z,9.23
2024-01-25T12:40:23.803Z,10.48
2024-01-25T12:41:26.355Z,9.05
2024-01-25T12:42:29.089Z,10.32
2024-01-25T12:44:36.391Z,8.00
2024-01-25T12:45:39.488Z,9.05
2024-01-25T12:46:42.353Z,8.38
2024-01-25T12:47:44.734Z,8.70
2024-01-25T12:48:48.526Z,8.48
2024-01-25T12:49:51.351Z,8.55
2024-01-25T12:50:54.287Z,7.35
2024-01-25T12:51:57.135Z,8.95
2024-01-25T12:53:03.170Z,8.55
2024-01-25T12:54:06.644Z,10.02
2024-01-25T12:55:09.736Z,9.70
2024-01-25T12:56:13.406Z,9.13
2024-01-25T12:58:18.821Z,6.65
2024-01-25T12:59:21.430Z,8.40
2024-01-25T13:00:24.349Z,8.98
2024-01-25T13:01:27.753Z,10.60
2024-01-25T13:02:30.102Z,7.80
2024-01-25T13:03:32.826Z,9.55
2024-01-25T13:04:35.525Z,9.00
2024-01-25T13:05:40.476Z,8.73
2024-01-25T13:06:43.106Z,8.02
2024-01-25T13:07:45.815Z,8.52
2024-01-25T13:08:48.273Z,8.75
2024-01-25T13:09:51.323Z,8.73
2024-01-25T13:10:53.746Z,7.93
2024-01-25T13:11:56.205Z,9.00
2024-01-25T13:13:02.061Z,7.75
2024-01-25T13:14:04.993Z,8.82
2024-01-25T13:15:08.653Z,7.88
2024-01-25T13:16:11.125Z,8.38
2024-01-25T13:17:13.565Z,8.65
2024-01-25T13:18:16.302Z,8.57
2024-01-25T13:19:19.444Z,8.32
2024-01-25T13:20:21.891Z,8.43
2024-01-25T13:21:24.441Z,7.97
2024-01-25T13:23:29.768Z,8.15
2024-01-25T13:24:32.846Z,7.60
2024-01-25T13:25:35.283Z,9.70
2024-01-25T13:27:40.624Z,7.22
2024-01-25T13:28:42.960Z,9.98
2024-01-25T13:29:45.440Z,7.60
2024-01-25T13:30:48.192Z,6.53
2024-01-25T13:31:50.657Z,8.93
2024-01-25T13:32:53.205Z,7.90
2024-01-25T13:33:55.900Z,8.63
2024-01-25T13:35:02.302Z,8.65
2024-01-25T13:37:12.478Z,7.60
2024-01-25T13:38:16.138Z,6.70
2024-01-25T13:39:18.847Z,6.32
2024-01-25T13:40:21.710Z,5.85
2024-01-25T13:41:24.218Z,5.55
2024-01-25T13:42:26.609Z,7.28
2024-01-25T13:43:29.322Z,5.72
2024-01-25T13:44:35.853Z,7.60
2024-01-25T13:45:44.199Z,7.30
2024-01-25T13:46:46.732Z,7.70
2024-01-25T13:48:51.807Z,5.63
2024-01-25T13:49:54.643Z,5.68
2024-01-25T13:50:56.877Z,5.75
2024-01-25T13:52:03.165Z,5.45
2024-01-25T13:53:05.665Z,6.97
2024-01-25T13:54:08.043Z,6.70
2024-01-25T13:55:10.413Z,6.82
2024-01-25T13:57:16.228Z,4.97
2024-01-25T13:59:21.237Z,5.40
2024-01-25T14:00:24.393Z,5.22
2024-01-25T14:01:27.082Z,6.28
2024-01-25T14:02:31.360Z,5.80
2024-01-25T14:03:33.891Z,6.97
2024-01-25T14:04:37.010Z,6.32
2024-01-25T14:06:42.638Z,5.85
2024-01-25T14:07:45.303Z,5.93
2024-01-25T14:08:48.618Z,5.82
2024-01-25T14:09:52.696Z,5.53
2024-01-25T14:10:55.735Z,5.90
2024-01-25T14:11:58.646Z,6.22
2024-01-25T14:13:02.432Z,6.13
2024-01-25T14:14:04.823Z,6.30
2024-01-25T14:15:10.079Z,5.38
2024-01-25T14:16:18.524Z,5.68
2024-01-25T14:17:23.302Z,5.47
2024-01-25T14:18:28.455Z,4.22
2024-01-25T14:19:31.594Z,4.88
2024-01-25T14:20:35.240Z,4.45
2024-01-25T14:21:38.221Z,4.63
2024-01-25T14:22:43.950Z,3.75
2024-01-25T14:23:46.606Z,4.15
2024-01-25T14:24:49.691Z,3.75
2024-01-25T14:25:52.772Z,4.15
2024-01-25T14:26:55.195Z,3.65
2024-01-25T14:27:58.746Z,3.83
2024-01-25T14:29:01.733Z,4.07
2024-01-25T14:31:07.966Z,4.15
2024-01-25T14:32:10.893Z,4.32
2024-01-25T14:33:14.666Z,3.28
2024-01-25T14:34:19.469Z,4.70
2024-01-25T14:35:21.929Z,4.22
2024-01-25T14:36:24.615Z,4.70
2024-01-25T14:37:26.960Z,4.35
2024-01-25T14:38:29.789Z,3.78
2024-01-25T14:39:32.417Z,3.25
2024-01-25T14:41:51.703Z,3.40
2024-01-25T14:42:55.112Z,4.03
2024-01-25T14:43:57.687Z,4.13
2024-01-25T14:45:00.037Z,3.60
2024-01-25T14:46:02.481Z,3.13
2024-01-25T14:48:08.229Z,3.58
2024-01-25T14:49:10.641Z,3.50
2024-01-25T14:50:13.205Z,3.90
2024-01-25T14:52:19.180Z,3.42
2024-01-25T14:53:21.593Z,3.45
2024-01-25T14:54:24.003Z,2.92
2024-01-25T14:55:29.974Z,3.42
2024-01-25T14:56:32.539Z,3.70
2024-01-25T14:57:35.321Z,3.67
2024-01-25T14:58:38.102Z,3.78
2024-01-25T14:59:40.637Z,5.60
2024-01-25T15:00:43.109Z,6.00
2024-01-25T15:01:49.201Z,6.78